createdAt,value
2017-11-10T00:00:21.371Z,11.80
2017-11-10T00:01:21.348Z,11.80
2017-11-10T00:02:21.413Z,11.80
2017-11-10T00:03:21.444Z,11.80
2017-11-10T00:04:21.418Z,11.80
2017-11-10T00:05:21.415Z,11.80
2017-11-10T00:06:21.416Z,11.80
2017-11-10T00:07:21.353Z,11.80
2017-11-10T00:08:21.422Z,11.80
2017-11-10T00:09:21.445Z,14.10
2017-11-10T00:10:21.451Z,14.10
2017-11-10T00:11:21.485Z,14.10
2017-11-10T00:12:21.419Z,14.10
2017-11-10T00:13:21.419Z,14.10
2017-11-10T00:14:21.355Z,14.10
2017-11-10T00:15:21.420Z,14.10
2017-11-10T00:16:21.358Z,14.10
2017-11-10T00:17:21.434Z,14.10
2017-11-10T00:18:21.423Z,14.10
2017-11-10T00:19:21.385Z,14.00
2017-11-10T00:20:21.288Z,14.00
2017-11-10T00:21:21.251Z,14.00
2017-11-10T00:22:21.350Z,14.00
2017-11-10T00:23:21.245Z,14.00
2017-11-10T00:24:21.295Z,14.00
2017-11-10T00:25:21.316Z,14.00
2017-11-10T00:26:21.357Z,14.00
2017-11-10T00:27:21.294Z,14.00
2017-11-10T00:28:21.353Z,14.00
2017-11-10T00:29:21.329Z,13.80
2017-11-10T00:30:21.421Z,13.80
2017-11-10T00:31:21.423Z,13.80
2017-11-10T00:32:21.431Z,13.80
2017-11-10T00:33:21.339Z,13.80
2017-11-10T00:34:21.340Z,13.80
2017-11-10T00:35:21.340Z,13.80
2017-11-10T00:36:21.432Z,13.80
2017-11-10T00:37:21.432Z,13.80
2017-11-10T00:38:21.379Z,13.80
2017-11-10T00:39:21.388Z,13.50
2017-11-10T00:40:21.302Z,13.50
2017-11-10T00:41:21.392Z,13.50
2017-11-10T00:42:21.330Z,13.50
2017-11-10T00:43:21.416Z,13.50
2017-11-10T00:44:21.302Z,13.50
2017-11-10T00:45:21.376Z,13.50
2017-11-10T00:46:21.407Z,13.50
2017-11-10T00:47:21.330Z,13.50
2017-11-10T00:48:21.332Z,13.50
2017-11-10T00:49:21.334Z,12.40
2017-11-10T00:50:21.443Z,12.40
2017-11-10T00:51:21.376Z,12.40
2017-11-10T00:52:21.381Z,12.40
2017-11-10T00:53:21.448Z,12.40
2017-11-10T00:54:21.385Z,12.40
2017-11-10T00:55:21.449Z,12.40
2017-11-10T00:56:21.446Z,12.40
2017-11-10T00:57:21.385Z,12.40
2017-11-10T00:58:21.451Z,12.40
2017-11-10T00:59:21.380Z,12.10
2017-11-10T01:00:21.447Z,12.10
2017-11-10T01:01:21.383Z,12.10
2017-11-10T01:02:21.382Z,12.10
2017-11-10T01:03:21.451Z,12.10
2017-11-10T01:04:21.387Z,12.10
2017-11-10T01:05:21.452Z,12.10
2017-11-10T01:06:21.453Z,12.10
2017-11-10T01:07:21.453Z,12.10
2017-11-10T01:08:21.388Z,12.10
2017-11-10T01:09:21.437Z,13.00
2017-11-10T01:10:21.385Z,13.00
2017-11-10T01:11:21.389Z,13.00
2017-11-10T01:12:21.321Z,13.00
2017-11-10T01:13:21.321Z,13.00
2017-11-10T01:14:21.452Z,13.00
2017-11-10T01:15:21.346Z,13.00
2017-11-10T01:16:21.411Z,13.00
2017-11-10T01:17:21.445Z,13.00
2017-11-10T01:18:21.325Z,13.00
2017-11-10T01:19:21.400Z,13.30
2017-11-10T01:20:21.461Z,13.30
2017-11-10T01:21:21.463Z,13.30
2017-11-10T01:22:21.402Z,13.30
2017-11-10T01:23:21.465Z,13.30
2017-11-10T01:24:21.399Z,13.30
2017-11-10T01:25:21.436Z,13.30
2017-11-10T01:26:21.395Z,13.30
2017-11-10T01:27:21.465Z,13.30
2017-11-10T01:28:21.423Z,13.30
2017-11-10T01:29:21.464Z,13.50
2017-11-10T01:30:21.400Z,13.50
2017-11-10T01:31:21.466Z,13.50
2017-11-10T01:32:21.401Z,13.50
2017-11-10T01:33:21.469Z,13.50
2017-11-10T01:34:21.403Z,13.50
2017-11-10T01:35:21.471Z,13.50
2017-11-10T01:36:21.504Z,13.50
2017-11-10T01:37:21.479Z,13.50
2017-11-10T01:38:21.472Z,13.50
2017-11-10T01:39:21.408Z,13.30
2017-11-10T01:40:21.472Z,13.30
2017-11-10T01:41:21.412Z,13.30
2017-11-10T01:42:21.406Z,13.30
2017-11-10T01:43:21.413Z,13.30
2017-11-10T01:44:21.476Z,13.30
2017-11-10T01:45:21.419Z,13.30
2017-11-10T01:46:21.475Z,13.30
2017-11-10T01:47:21.481Z,13.30
2017-11-10T01:48:21.477Z,13.30
2017-11-10T01:49:21.441Z,12.20
2017-11-10T01:50:21.418Z,12.20
2017-11-10T01:51:21.413Z,12.20
2017-11-10T01:52:21.507Z,12.20
2017-11-10T01:53:21.481Z,12.20
2017-11-10T01:54:21.414Z,12.20
2017-11-10T01:55:21.481Z,12.20
2017-11-10T01:56:21.422Z,12.20
2017-11-10T01:57:21.484Z,12.20
2017-11-10T01:58:21.415Z,12.20
2017-11-10T01:59:21.483Z,13.90
2017-11-10T02:00:21.474Z,13.90
2017-11-10T02:01:21.413Z,13.90
2017-11-10T02:02:21.397Z,13.90
2017-11-10T02:03:21.438Z,13.90
2017-11-10T02:04:21.458Z,13.90
2017-11-10T02:05:21.425Z,13.90
2017-11-10T02:06:21.445Z,13.90
2017-11-10T02:07:21.393Z,13.90
2017-11-10T02:08:21.562Z,13.90
2017-11-10T02:09:21.431Z,11.80
2017-11-10T02:10:21.494Z,11.80
2017-11-10T02:11:21.422Z,11.80
2017-11-10T02:12:21.492Z,11.80
2017-11-10T02:13:21.439Z,11.80
2017-11-10T02:14:21.495Z,11.80
2017-11-10T02:15:21.430Z,11.80
2017-11-10T02:16:21.496Z,11.80
2017-11-10T02:17:21.495Z,11.80
2017-11-10T02:19:21.434Z,13.70
2017-11-10T02:20:21.497Z,13.70
2017-11-10T02:21:21.437Z,13.70
2017-11-10T02:22:21.504Z,13.70
2017-11-10T02:23:21.500Z,13.70
2017-11-10T02:24:21.569Z,13.70
2017-11-10T02:25:21.434Z,13.70
2017-11-10T02:26:21.500Z,13.70
2017-11-10T02:27:21.498Z,13.70
2017-11-10T02:28:21.441Z,13.70
2017-11-10T02:29:21.434Z,12.20
2017-11-10T02:30:21.503Z,12.20
2017-11-10T02:31:21.446Z,12.20
2017-11-10T02:32:21.436Z,12.20
2017-11-10T02:33:21.506Z,12.20
2017-11-10T02:34:21.505Z,12.20
2017-11-10T02:35:21.443Z,12.20
2017-11-10T02:36:21.440Z,12.20
2017-11-10T02:37:21.507Z,12.20
2017-11-10T02:38:21.465Z,12.20
2017-11-10T02:39:21.435Z,11.80
2017-11-10T02:40:21.430Z,11.80
2017-11-10T02:41:21.410Z,11.80
2017-11-10T02:42:21.416Z,11.80
2017-11-10T02:43:21.470Z,11.80
2017-11-10T02:44:21.499Z,11.80
2017-11-10T02:45:21.477Z,11.80
2017-11-10T02:46:21.508Z,11.80
2017-11-10T02:47:21.500Z,11.80
2017-11-10T02:48:21.442Z,11.80
2017-11-10T02:49:21.514Z,11.50
2017-11-10T02:50:21.453Z,11.50
2017-11-10T02:51:21.549Z,11.50
2017-11-10T02:52:21.518Z,11.50
2017-11-10T02:53:21.453Z,11.50
2017-11-10T02:54:21.520Z,11.50
2017-11-10T02:55:21.519Z,11.50
2017-11-10T02:56:21.465Z,11.50
2017-11-10T02:57:21.470Z,11.50
2017-11-10T02:58:21.531Z,11.50
2017-11-10T02:59:21.429Z,12.20
2017-11-10T03:00:21.521Z,12.20
2017-11-10T03:01:21.465Z,12.20
2017-11-10T03:02:21.523Z,12.20
2017-11-10T03:03:21.520Z,12.20
2017-11-10T03:04:21.520Z,12.20
2017-11-10T03:05:21.463Z,12.20
2017-11-10T03:06:21.516Z,12.20
2017-11-10T03:07:21.511Z,12.20
2017-11-10T03:08:21.455Z,12.20
2017-11-10T03:09:21.460Z,11.70
2017-11-10T03:10:21.545Z,11.70
2017-11-10T03:11:21.461Z,11.70
2017-11-10T03:12:21.528Z,11.70
2017-11-10T03:13:21.462Z,11.70
2017-11-10T03:14:21.530Z,11.70
2017-11-10T03:15:21.546Z,11.70
2017-11-10T03:16:21.478Z,11.70
2017-11-10T03:17:21.466Z,11.70
2017-11-10T03:18:21.428Z,11.70
2017-11-10T03:19:21.490Z,12.00
2017-11-10T03:20:21.491Z,12.00
2017-11-10T03:21:21.462Z,12.00
2017-11-10T03:22:21.522Z,12.00
2017-11-10T03:23:21.459Z,12.00
2017-11-10T03:24:21.486Z,12.00
2017-11-10T03:25:21.469Z,12.00
2017-11-10T03:26:21.493Z,12.00
2017-11-10T03:27:21.425Z,12.00
2017-11-10T03:28:21.398Z,12.00
2017-11-10T03:29:21.538Z,11.10
2017-11-10T03:30:21.541Z,11.10
2017-11-10T03:31:21.540Z,11.10
2017-11-10T03:32:21.482Z,11.10
2017-11-10T03:33:21.541Z,11.10
2017-11-10T03:34:21.474Z,11.10
2017-11-10T03:35:21.486Z,11.10
2017-11-10T03:36:21.542Z,11.10
2017-11-10T03:37:21.542Z,11.10
2017-11-10T03:38:21.502Z,11.10
2017-11-10T03:39:21.546Z,10.90
2017-11-10T03:40:21.480Z,10.90
2017-11-10T03:41:21.545Z,10.90
2017-11-10T03:42:21.478Z,10.90
2017-11-10T03:43:21.545Z,10.90
2017-11-10T03:44:21.483Z,10.90
2017-11-10T03:45:21.547Z,10.90
2017-11-10T03:46:21.481Z,10.90
2017-11-10T03:47:21.549Z,10.90
2017-11-10T03:48:21.583Z,10.90
2017-11-10T03:49:21.549Z,9.50
2017-11-10T03:50:21.487Z,9.50
2017-11-10T03:51:21.485Z,9.50
2017-11-10T03:52:21.561Z,9.50
2017-11-10T03:53:21.541Z,9.50
2017-11-10T03:54:21.489Z,9.50
2017-11-10T03:55:21.553Z,9.50
2017-11-10T03:56:21.490Z,9.50
2017-11-10T03:57:21.555Z,9.50
2017-11-10T03:58:21.486Z,9.50
2017-11-10T03:59:21.534Z,10.00
2017-11-10T04:00:21.430Z,10.00
2017-11-10T04:01:21.486Z,10.00
2017-11-10T04:02:21.525Z,10.00
2017-11-10T04:03:21.421Z,10.00
2017-11-10T04:04:21.486Z,10.00
2017-11-10T04:05:21.508Z,10.00
2017-11-10T04:06:21.432Z,10.00
2017-11-10T04:07:21.517Z,10.00
2017-11-10T04:08:21.518Z,10.00
2017-11-10T04:09:21.480Z,10.40
2017-11-10T04:10:21.431Z,10.40
2017-11-10T04:11:21.473Z,10.40
2017-11-10T04:12:21.449Z,10.40
2017-11-10T04:13:21.480Z,10.40
2017-11-10T04:14:21.465Z,10.40
2017-11-10T04:15:21.469Z,10.40
2017-11-10T04:16:21.505Z,10.40
2017-11-10T04:17:21.555Z,10.40
2017-11-10T04:18:21.507Z,10.40
2017-11-10T04:19:21.469Z,10.50
2017-11-10T04:20:21.529Z,10.50
2017-11-10T04:21:21.538Z,10.50
2017-11-10T04:22:21.469Z,10.50
2017-11-10T04:23:21.559Z,10.50
2017-11-10T04:24:21.482Z,10.50
2017-11-10T04:25:21.557Z,10.50
2017-11-10T04:26:21.498Z,10.50
2017-11-10T04:27:21.534Z,10.50
2017-11-10T04:28:21.444Z,10.50
2017-11-10T04:29:21.567Z,10.99
2017-11-10T04:30:21.563Z,10.99
2017-11-10T04:31:21.577Z,10.99
2017-11-10T04:32:21.545Z,10.99
2017-11-10T04:33:21.483Z,10.99
2017-11-10T04:34:21.569Z,10.99
2017-11-10T04:35:21.497Z,10.99
2017-11-10T04:36:21.519Z,10.99
2017-11-10T04:37:21.461Z,10.99
2017-11-10T04:38:21.501Z,10.99
2017-11-10T04:39:21.581Z,9.60
2017-11-10T04:40:21.582Z,9.60
2017-11-10T04:41:21.515Z,9.60
2017-11-10T04:42:21.585Z,9.60
2017-11-10T04:43:21.515Z,9.60
2017-11-10T04:44:21.522Z,9.60
2017-11-10T04:45:21.588Z,9.60
2017-11-10T04:46:21.585Z,9.60
2017-11-10T04:47:21.585Z,9.60
2017-11-10T04:48:21.521Z,9.60
2017-11-10T04:49:21.584Z,9.70
2017-11-10T04:50:21.521Z,9.70
2017-11-10T04:51:21.587Z,9.70
2017-11-10T04:52:21.522Z,9.70
2017-11-10T04:53:21.589Z,9.70
2017-11-10T04:54:21.526Z,9.70
2017-11-10T04:55:21.607Z,9.70
2017-11-10T04:56:21.526Z,9.70
2017-11-10T04:57:21.592Z,9.70
2017-11-10T04:58:21.531Z,9.70
2017-11-10T04:59:21.495Z,9.30
2017-11-10T05:00:21.504Z,9.30
2017-11-10T05:01:21.498Z,9.30
2017-11-10T05:02:21.493Z,9.30
2017-11-10T05:03:21.456Z,9.30
2017-11-10T05:04:21.502Z,9.30
2017-11-10T05:05:21.568Z,9.30
2017-11-10T05:06:21.587Z,9.30
2017-11-10T05:07:21.579Z,9.30
2017-11-10T05:08:21.484Z,9.30
2017-11-10T05:09:21.547Z,7.90
2017-11-10T05:10:21.533Z,7.90
2017-11-10T05:11:21.533Z,7.90
2017-11-10T05:12:21.555Z,7.90
2017-11-10T05:13:21.603Z,7.90
2017-11-10T05:14:21.552Z,7.90
2017-11-10T05:15:21.490Z,7.90
2017-11-10T05:16:21.540Z,7.90
2017-11-10T05:17:21.584Z,7.90
2017-11-10T05:18:21.537Z,7.90
2017-11-10T05:19:21.602Z,7.90
2017-11-10T05:20:21.537Z,8.70
2017-11-10T05:21:21.605Z,8.70
2017-11-10T05:22:21.540Z,8.70
2017-11-10T05:23:21.604Z,8.70
2017-11-10T05:24:21.539Z,8.70
2017-11-10T05:25:21.608Z,8.70
2017-11-10T05:26:21.608Z,8.70
2017-11-10T05:27:21.545Z,8.70
2017-11-10T05:28:21.544Z,8.70
2017-11-10T05:29:21.609Z,8.70
2017-11-10T05:30:21.429Z,7.50
2017-11-10T05:31:21.437Z,7.50
2017-11-10T05:32:21.549Z,7.50
2017-11-10T05:33:21.547Z,7.50
2017-11-10T05:34:21.536Z,7.50
2017-11-10T05:35:21.429Z,7.50
2017-11-10T05:36:21.484Z,7.50
2017-11-10T05:37:21.545Z,7.50
2017-11-10T05:38:21.431Z,7.50
2017-11-10T05:39:21.443Z,7.50
2017-11-10T05:40:21.622Z,7.10
2017-11-10T05:41:21.548Z,7.10
2017-11-10T05:42:21.618Z,7.10
2017-11-10T05:43:21.549Z,7.10
2017-11-10T05:44:21.557Z,7.10
2017-11-10T05:45:21.617Z,7.10
2017-11-10T05:46:21.620Z,7.10
2017-11-10T05:47:21.555Z,7.10
2017-11-10T05:48:21.620Z,7.10
2017-11-10T05:49:21.551Z,7.10
2017-11-10T05:50:21.624Z,7.80
2017-11-10T05:51:21.553Z,7.80
2017-11-10T05:52:21.625Z,7.80
2017-11-10T05:53:21.556Z,7.80
2017-11-10T05:54:21.625Z,7.80
2017-11-10T05:55:21.557Z,7.80
2017-11-10T05:56:21.631Z,7.80
2017-11-10T05:57:21.558Z,7.80
2017-11-10T05:58:21.629Z,7.80
2017-11-10T05:59:21.646Z,7.80
2017-11-10T06:00:21.565Z,6.50
2017-11-10T06:01:21.628Z,6.50
2017-11-10T06:02:21.630Z,6.50
2017-11-10T06:03:21.565Z,6.50
2017-11-10T06:04:21.629Z,6.50
2017-11-10T06:05:21.630Z,6.50
2017-11-10T06:06:21.632Z,6.50
2017-11-10T06:07:21.563Z,6.50
2017-11-10T06:08:21.590Z,6.50
2017-11-10T06:09:21.561Z,6.50
2017-11-10T06:10:21.512Z,5.50
2017-11-10T06:11:21.608Z,5.50
2017-11-10T06:12:21.630Z,5.50
2017-11-10T06:13:21.639Z,5.50
2017-11-10T06:14:21.501Z,5.50
2017-11-10T06:15:21.536Z,5.50
2017-11-10T06:16:21.541Z,5.50
2017-11-10T06:17:21.517Z,5.50
2017-11-10T06:18:21.551Z,5.50
2017-11-10T06:19:21.546Z,5.50
2017-11-10T06:20:21.626Z,4.90
2017-11-10T06:21:21.526Z,4.90
2017-11-10T06:22:21.639Z,4.90
2017-11-10T06:23:21.516Z,4.90
2017-11-10T06:24:21.630Z,4.90
2017-11-10T06:25:21.634Z,4.90
2017-11-10T06:26:21.546Z,4.90
2017-11-10T06:27:21.643Z,4.90
2017-11-10T06:28:21.594Z,4.90
2017-11-10T06:29:21.555Z,4.90
2017-11-10T06:30:21.579Z,4.40
2017-11-10T06:32:21.649Z,4.40
2017-11-10T06:33:21.578Z,4.40
2017-11-10T06:34:21.607Z,4.40
2017-11-10T06:35:21.582Z,4.40
2017-11-10T06:36:21.583Z,4.40
2017-11-10T06:37:21.650Z,4.40
2017-11-10T06:38:21.586Z,4.40
2017-11-10T06:39:21.586Z,4.40
2017-11-10T06:40:21.583Z,4.20
2017-11-10T06:41:21.600Z,4.20
2017-11-10T06:42:21.657Z,4.20
2017-11-10T06:43:21.586Z,4.20
2017-11-10T06:44:21.653Z,4.20
2017-11-10T06:45:21.581Z,4.20
2017-11-10T06:46:21.658Z,4.20
2017-11-10T06:47:21.656Z,4.20
2017-11-10T06:48:21.590Z,4.20
2017-11-10T06:49:21.656Z,4.20
2017-11-10T06:50:21.478Z,5.00
2017-11-10T06:51:21.537Z,5.00
2017-11-10T06:52:21.534Z,5.00
2017-11-10T06:53:21.528Z,5.00
2017-11-10T06:54:21.536Z,5.00
2017-11-10T06:55:21.594Z,5.00
2017-11-10T06:56:21.536Z,5.00
2017-11-10T06:57:21.547Z,5.00
2017-11-10T06:58:21.495Z,5.00
2017-11-10T06:59:21.546Z,5.00
2017-11-10T07:00:21.666Z,5.50
2017-11-10T07:01:21.592Z,5.50
2017-11-10T07:02:21.666Z,5.50
2017-11-10T07:03:21.600Z,5.50
2017-11-10T07:04:21.667Z,5.50
2017-11-10T07:05:21.667Z,5.50
2017-11-10T07:06:21.683Z,5.50
2017-11-10T07:07:21.621Z,5.50
2017-11-10T07:08:21.595Z,5.50
2017-11-10T07:09:21.677Z,5.50
2017-11-10T07:10:21.534Z,4.90
2017-11-10T07:11:21.600Z,4.90
2017-11-10T07:12:21.603Z,4.90
2017-11-10T07:13:21.601Z,4.90
2017-11-10T07:14:21.571Z,4.90
2017-11-10T07:15:21.540Z,4.90
2017-11-10T07:16:21.621Z,4.90
2017-11-10T07:17:21.655Z,4.90
2017-11-10T07:18:21.548Z,4.90
2017-11-10T07:19:21.664Z,4.90
2017-11-10T07:20:21.607Z,3.60
2017-11-10T07:21:21.609Z,3.60
2017-11-10T07:22:21.675Z,3.60
2017-11-10T07:23:21.678Z,3.60
2017-11-10T07:24:21.678Z,3.60
2017-11-10T07:25:21.617Z,3.60
2017-11-10T07:26:21.680Z,3.60
2017-11-10T07:27:21.609Z,3.60
2017-11-10T07:28:21.686Z,3.60
2017-11-10T07:29:21.681Z,3.60
2017-11-10T07:30:21.538Z,5.00
2017-11-10T07:31:21.623Z,5.00
2017-11-10T07:32:21.627Z,5.00
2017-11-10T07:33:21.582Z,5.00
2017-11-10T07:34:21.633Z,5.00
2017-11-10T07:35:21.577Z,5.00
2017-11-10T07:36:21.628Z,5.00
2017-11-10T07:37:21.538Z,5.00
2017-11-10T07:38:21.558Z,5.00
2017-11-10T07:39:21.531Z,5.00
2017-11-10T07:40:21.687Z,4.70
2017-11-10T07:41:21.641Z,4.70
2017-11-10T07:42:21.690Z,4.70
2017-11-10T07:43:21.638Z,4.70
2017-11-10T07:44:21.619Z,4.70
2017-11-10T07:45:21.690Z,4.70
2017-11-10T07:46:21.612Z,4.70
2017-11-10T07:47:21.691Z,4.70
2017-11-10T07:48:21.620Z,4.70
2017-11-10T07:49:21.691Z,4.70
2017-11-10T07:50:21.651Z,4.60
2017-11-10T07:51:21.617Z,4.60
2017-11-10T07:52:21.694Z,4.60
2017-11-10T07:53:21.696Z,4.60
2017-11-10T07:54:21.622Z,4.60
2017-11-10T07:55:21.625Z,4.60
2017-11-10T07:56:21.692Z,4.60
2017-11-10T07:57:21.695Z,4.60
2017-11-10T07:58:21.627Z,4.60
2017-11-10T07:59:21.700Z,4.60
2017-11-10T08:00:21.623Z,4.99
2017-11-10T08:01:21.699Z,4.99
2017-11-10T08:02:21.627Z,4.99
2017-11-10T08:03:21.700Z,4.99
2017-11-10T08:04:21.627Z,4.99
2017-11-10T08:05:21.584Z,4.99
2017-11-10T08:06:21.633Z,4.99
2017-11-10T08:07:21.702Z,4.99
2017-11-10T08:08:21.630Z,4.99
2017-11-10T08:09:21.700Z,4.99
2017-11-10T08:10:21.632Z,4.80
2017-11-10T08:11:21.631Z,4.80
2017-11-10T08:12:21.707Z,4.80
2017-11-10T08:13:21.635Z,4.80
2017-11-10T08:14:21.705Z,4.80
2017-11-10T08:15:21.631Z,4.80
2017-11-10T08:16:21.593Z,4.80
2017-11-10T08:17:21.702Z,4.80
2017-11-10T08:18:21.706Z,4.80
2017-11-10T08:19:21.735Z,4.80
2017-11-10T08:20:21.639Z,3.80
2017-11-10T08:21:21.720Z,3.80
2017-11-10T08:22:21.648Z,3.80
2017-11-10T08:23:21.644Z,3.80
2017-11-10T08:24:21.724Z,3.80
2017-11-10T08:25:21.644Z,3.80
2017-11-10T08:26:21.724Z,3.80
2017-11-10T08:27:21.715Z,3.80
2017-11-10T08:28:21.646Z,3.80
2017-11-10T08:29:21.721Z,3.80
2017-11-10T08:30:21.715Z,4.40
2017-11-10T08:31:21.677Z,4.40
2017-11-10T08:32:21.713Z,4.40
2017-11-10T08:33:21.595Z,4.40
2017-11-10T08:34:21.681Z,4.40
2017-11-10T08:35:21.618Z,4.40
2017-11-10T08:36:21.627Z,4.40
2017-11-10T08:37:21.741Z,4.40
2017-11-10T08:38:21.686Z,4.40
2017-11-10T08:39:21.620Z,4.40
2017-11-10T08:40:21.649Z,4.00
2017-11-10T08:41:21.612Z,4.00
2017-11-10T08:42:21.656Z,4.00
2017-11-10T08:43:21.618Z,4.00
2017-11-10T08:44:21.551Z,4.00
2017-11-10T08:45:21.594Z,4.00
2017-11-10T08:46:21.624Z,4.00
2017-11-10T08:47:21.548Z,4.00
2017-11-10T08:48:21.597Z,4.00
2017-11-10T08:49:21.609Z,4.00
2017-11-10T08:50:21.733Z,4.30
2017-11-10T08:51:21.658Z,4.30
2017-11-10T08:52:21.732Z,4.30
2017-11-10T08:53:21.656Z,4.30
2017-11-10T08:54:21.664Z,4.30
2017-11-10T08:55:21.733Z,4.30
2017-11-10T08:56:21.734Z,4.30
2017-11-10T08:57:21.661Z,4.30
2017-11-10T08:58:21.734Z,4.30
2017-11-10T08:59:21.735Z,4.30
2017-11-10T09:00:21.618Z,3.30
2017-11-10T09:01:21.587Z,3.30
2017-11-10T09:02:21.622Z,3.30
2017-11-10T09:03:21.696Z,3.30
2017-11-10T09:05:21.622Z,3.30
2017-11-10T09:06:21.590Z,3.30
2017-11-10T09:07:21.591Z,3.30
2017-11-10T09:08:21.703Z,3.30
2017-11-10T09:09:21.647Z,3.30
2017-11-10T09:10:21.803Z,4.00
2017-11-10T09:11:21.565Z,4.00
2017-11-10T09:12:21.679Z,4.00
2017-11-10T09:13:21.594Z,4.00
2017-11-10T09:14:21.632Z,4.00
2017-11-10T09:15:21.632Z,4.00
2017-11-10T09:16:21.638Z,4.00
2017-11-10T09:17:21.597Z,4.00
2017-11-10T09:18:21.649Z,4.00
2017-11-10T09:19:21.579Z,4.00
2017-11-10T09:20:21.657Z,3.70
2017-11-10T09:21:21.727Z,3.70
2017-11-10T09:22:21.745Z,3.70
2017-11-10T09:23:21.658Z,3.70
2017-11-10T09:24:21.695Z,3.70
2017-11-10T09:25:21.736Z,3.70
2017-11-10T09:26:21.646Z,3.70
2017-11-10T09:27:21.718Z,3.70
2017-11-10T09:28:21.676Z,3.70
2017-11-10T09:29:21.697Z,3.70
2017-11-10T09:30:21.749Z,5.60
2017-11-10T09:31:21.710Z,5.60
2017-11-10T09:32:21.758Z,5.60
2017-11-10T09:33:21.716Z,5.60
2017-11-10T09:34:21.758Z,5.60
2017-11-10T09:35:21.681Z,5.60
2017-11-10T09:36:21.763Z,5.60
2017-11-10T09:37:21.683Z,5.60
2017-11-10T09:38:21.687Z,5.60
2017-11-10T09:39:21.758Z,5.60
2017-11-10T09:40:21.685Z,5.90
2017-11-10T09:41:21.761Z,5.90
2017-11-10T09:42:21.687Z,5.90
2017-11-10T09:43:21.767Z,5.90
2017-11-10T09:44:21.712Z,5.90
2017-11-10T09:45:21.762Z,5.90
2017-11-10T09:46:21.688Z,5.90
2017-11-10T09:47:21.765Z,5.90
2017-11-10T09:48:21.764Z,5.90
2017-11-10T09:49:21.692Z,5.90
2017-11-10T09:50:21.756Z,6.60
2017-11-10T09:51:21.750Z,6.60
2017-11-10T09:52:21.756Z,6.60
2017-11-10T09:53:21.713Z,6.60
2017-11-10T09:54:21.691Z,6.60
2017-11-10T09:55:21.691Z,6.60
2017-11-10T09:56:21.633Z,6.60
2017-11-10T09:57:21.697Z,6.60
2017-11-10T09:58:21.769Z,6.60
2017-11-10T09:59:21.670Z,6.60
2017-11-10T10:00:21.771Z,5.40
2017-11-10T10:01:21.696Z,5.40
2017-11-10T10:02:21.769Z,5.40
2017-11-10T10:03:21.706Z,5.40
2017-11-10T10:04:21.793Z,5.40
2017-11-10T10:05:21.701Z,5.40
2017-11-10T10:06:21.804Z,5.40
2017-11-10T10:07:21.789Z,5.40
2017-11-10T10:08:21.775Z,5.40
2017-11-10T10:09:21.708Z,5.40
2017-11-10T10:10:21.716Z,6.10
2017-11-10T10:11:21.672Z,6.10
2017-11-10T10:12:21.723Z,6.10
2017-11-10T10:13:21.722Z,6.10
2017-11-10T10:14:21.728Z,6.10
2017-11-10T10:15:21.726Z,6.10
2017-11-10T10:16:21.630Z,6.10
2017-11-10T10:17:21.676Z,6.10
2017-11-10T10:18:21.679Z,6.10
2017-11-10T10:19:21.613Z,6.10
2017-11-10T10:20:21.771Z,5.80
2017-11-10T10:21:21.771Z,5.80
2017-11-10T10:22:21.731Z,5.80
2017-11-10T10:23:21.710Z,5.80
2017-11-10T10:24:21.784Z,5.80
2017-11-10T10:25:21.685Z,5.80
2017-11-10T10:26:21.730Z,5.80
2017-11-10T10:27:21.685Z,5.80
2017-11-10T10:28:21.743Z,5.80
2017-11-10T10:29:21.671Z,5.80
2017-11-10T10:30:21.727Z,6.80
2017-11-10T10:31:21.786Z,6.80
2017-11-10T10:32:21.721Z,6.80
2017-11-10T10:33:21.723Z,6.80
2017-11-10T10:34:21.791Z,6.80
2017-11-10T10:35:21.715Z,6.80
2017-11-10T10:36:21.795Z,6.80
2017-11-10T10:37:21.722Z,6.80
2017-11-10T10:38:21.794Z,6.80
2017-11-10T10:39:21.726Z,6.80
2017-11-10T10:40:21.795Z,6.10
2017-11-10T10:41:21.721Z,6.10
2017-11-10T10:42:21.799Z,6.10
2017-11-10T10:43:21.743Z,6.10
2017-11-10T10:44:21.799Z,6.10
2017-11-10T10:45:21.724Z,6.10
2017-11-10T10:46:21.797Z,6.10
2017-11-10T10:47:21.726Z,6.10
2017-11-10T10:48:21.798Z,6.10
2017-11-10T10:49:21.728Z,6.10
2017-11-10T10:50:21.683Z,6.40
2017-11-10T10:51:21.774Z,6.40
2017-11-10T10:52:21.767Z,6.40
2017-11-10T10:53:21.731Z,6.40
2017-11-10T10:54:21.769Z,6.40
2017-11-10T10:55:21.752Z,6.40
2017-11-10T10:56:21.771Z,6.40
2017-11-10T10:57:21.766Z,6.40
2017-11-10T10:58:21.705Z,6.40
2017-11-10T10:59:21.798Z,6.40
2017-11-10T11:00:21.686Z,6.50
2017-11-10T11:01:21.806Z,6.50
2017-11-10T11:02:21.698Z,6.50
2017-11-10T11:03:21.773Z,6.50
2017-11-10T11:04:21.736Z,6.50
2017-11-10T11:05:21.773Z,6.50
2017-11-10T11:06:21.696Z,6.50
2017-11-10T11:07:21.712Z,6.50
2017-11-10T11:08:21.718Z,6.50
2017-11-10T11:09:21.714Z,6.50
2017-11-10T11:10:21.774Z,5.80
2017-11-10T11:11:21.728Z,5.80
2017-11-10T11:12:21.719Z,5.80
2017-11-10T11:13:21.814Z,5.80
2017-11-10T11:14:21.709Z,5.80
2017-11-10T11:15:21.814Z,5.80
2017-11-10T11:16:21.716Z,5.80
2017-11-10T11:17:21.799Z,5.80
2017-11-10T11:18:21.728Z,5.80
2017-11-10T11:19:21.805Z,5.80
2017-11-10T11:20:21.801Z,5.80
2017-11-10T11:21:21.690Z,6.00
2017-11-10T11:22:21.704Z,6.00
2017-11-10T11:23:21.679Z,6.00
2017-11-10T11:24:21.707Z,6.00
2017-11-10T11:25:21.711Z,6.00
2017-11-10T11:26:21.728Z,6.00
2017-11-10T11:27:21.711Z,6.00
2017-11-10T11:28:21.713Z,6.00
2017-11-10T11:29:21.716Z,6.00
2017-11-10T11:30:21.732Z,6.00
2017-11-10T11:31:21.700Z,4.80
2017-11-10T11:32:21.704Z,4.80
2017-11-10T11:33:21.792Z,4.80
2017-11-10T11:34:21.816Z,4.80
2017-11-10T11:35:21.766Z,4.80
2017-11-10T11:36:21.705Z,4.80
2017-11-10T11:37:21.728Z,4.80
2017-11-10T11:38:21.706Z,4.80
2017-11-10T11:39:21.799Z,4.80
2017-11-10T11:40:21.772Z,4.80
2017-11-10T11:41:21.985Z,4.60
2017-11-10T11:42:21.834Z,4.60
2017-11-10T11:43:21.761Z,4.60
2017-11-10T11:44:21.834Z,4.60
2017-11-10T11:45:21.761Z,4.60
2017-11-10T11:46:21.837Z,4.60
2017-11-10T11:47:21.837Z,4.60
2017-11-10T11:48:21.837Z,4.60
2017-11-10T11:49:21.765Z,4.60
2017-11-10T11:50:21.837Z,4.60
2017-11-10T11:51:21.721Z,4.00
2017-11-10T11:52:21.812Z,4.00
2017-11-10T11:53:21.816Z,4.00
2017-11-10T11:54:21.705Z,4.00
2017-11-10T11:55:21.724Z,4.00
2017-11-10T11:56:21.784Z,4.00
2017-11-10T11:57:21.767Z,4.00
2017-11-10T11:58:21.781Z,4.00
2017-11-10T11:59:21.819Z,4.00
2017-11-10T12:00:21.704Z,4.00
2017-11-10T12:01:21.753Z,3.90
2017-11-10T12:02:21.808Z,3.90
2017-11-10T12:03:21.767Z,3.90
2017-11-10T12:04:21.808Z,3.90
2017-11-10T12:05:21.725Z,3.90
2017-11-10T12:06:21.843Z,3.90
2017-11-10T12:07:21.844Z,3.90
2017-11-10T12:08:21.793Z,3.90
2017-11-10T12:09:21.813Z,3.90
2017-11-10T12:10:21.832Z,3.90
2017-11-10T12:11:21.787Z,3.40
2017-11-10T12:12:21.819Z,3.40
2017-11-10T12:13:21.849Z,3.40
2017-11-10T12:14:21.738Z,3.40
2017-11-10T12:15:21.751Z,3.40
2017-11-10T12:16:21.775Z,3.40
2017-11-10T12:17:21.855Z,3.40
2017-11-10T12:18:21.823Z,3.40
2017-11-10T12:19:21.851Z,3.40
2017-11-10T12:20:21.820Z,3.40
2017-11-10T12:21:21.858Z,3.40
2017-11-10T12:22:21.782Z,3.40
2017-11-10T12:23:21.788Z,3.40
2017-11-10T12:24:21.857Z,3.40
2017-11-10T12:25:22.015Z,3.40
2017-11-10T12:26:21.785Z,3.40
2017-11-10T12:27:21.792Z,3.40
2017-11-10T12:28:21.861Z,3.40
2017-11-10T12:29:21.782Z,3.40
2017-11-10T12:30:21.862Z,3.40
2017-11-10T12:31:21.789Z,8.20
2017-11-10T12:32:21.865Z,8.20
2017-11-10T12:33:21.803Z,8.20
2017-11-10T12:34:21.864Z,8.20
2017-11-10T12:35:21.793Z,8.20
2017-11-10T12:36:21.868Z,8.20
2017-11-10T12:37:21.796Z,8.20
2017-11-10T12:38:21.798Z,8.20
2017-11-10T12:39:21.865Z,8.20
2017-11-10T12:40:21.794Z,8.20
2017-11-10T12:41:21.868Z,5.70
2017-11-10T12:42:21.868Z,5.70
2017-11-10T12:43:21.798Z,5.70
2017-11-10T12:44:21.873Z,5.70
2017-11-10T12:45:21.796Z,5.70
2017-11-10T12:46:21.870Z,5.70
2017-11-10T12:47:21.800Z,5.70
2017-11-10T12:48:21.871Z,5.70
2017-11-10T12:49:21.803Z,5.70
2017-11-10T12:50:21.872Z,5.70
2017-11-10T12:51:21.861Z,3.50
2017-11-10T12:52:21.738Z,3.50
2017-11-10T12:53:21.844Z,3.50
2017-11-10T12:54:21.780Z,3.50
2017-11-10T12:55:21.843Z,3.50
2017-11-10T12:56:21.870Z,3.50
2017-11-10T12:57:21.847Z,3.50
2017-11-10T12:58:21.867Z,3.50
2017-11-10T12:59:21.877Z,3.50
2017-11-10T13:00:21.867Z,3.50
2017-11-10T13:01:21.861Z,3.90
2017-11-10T13:02:21.876Z,3.90
2017-11-10T13:03:21.807Z,3.90
2017-11-10T13:04:21.784Z,3.90
2017-11-10T13:05:21.848Z,3.90
2017-11-10T13:06:21.842Z,3.90
2017-11-10T13:07:21.844Z,3.90
2017-11-10T13:08:21.807Z,3.90
2017-11-10T13:09:21.848Z,3.90
2017-11-10T13:10:21.879Z,3.90
2017-11-10T13:11:21.845Z,4.00
2017-11-10T13:12:21.742Z,4.00